Time;durP1;ratioP1;P1;durP2;ratioP2;P2;SDS_P1;SDS_P2;PMS_P1;PMS_P2;Temp;Humidity;BMP_temperature;BMP_pressure;BME280_temperature;BME280_humidity;BME280_pressure;Samples;Min_cycle;Max_cycle;Signal;HPM_P1;HPM_P2
2022/07/19 00:00:35;;;;;;;6.00;1.90;;;;;13.40;98204.20;;;;111262;1247;41175;-78
2022/07/19 00:03:06;;;;;;;2.90;1.60;;;;;13.40;98205.20;;;;111500;1245;41238;-78
2022/07/19 00:05:35;;;;;;;3.90;1.80;;;;;13.40;98204.20;;;;111504;1247;41960;-80
2022/07/19 00:08:06;;;;;;;5.00;1.90;;;;;13.40;98202.00;;;;111257;1248;41602;-79
2022/07/19 00:10:36;;;;;;;6.00;1.80;;;;;13.40;98204.80;;;;111620;1247;41293;-79
2022/07/19 00:13:06;;;;;;;5.50;1.90;;;;;13.40;98201.00;;;;111558;1245;41164;-79
2022/07/19 00:15:36;;;;;;;4.80;2.00;;;;;13.40;98201.20;;;;111538;1247;41355;-80
2022/07/19 00:18:06;;;;;;;6.70;2.20;;;;;13.40;98201.80;;;;111339;1247;41134;-80
2022/07/19 00:20:35;;;;;;;6.20;1.90;;;;;13.30;98197.60;;;;111279;1247;40931;-79
2022/07/19 00:23:05;;;;;;;6.00;2.00;;;;;13.30;98199.80;;;;111182;1248;41537;-79
2022/07/19 00:25:34;;;;;;;5.60;1.90;;;;;13.30;98200.60;;;;111490;1247;41249;-79
2022/07/19 00:28:04;;;;;;;5.80;2.10;;;;;13.20;98202.00;;;;111336;1247;41162;-79
2022/07/19 00:30:33;;;;;;;5.80;2.20;;;;;13.10;98202.00;;;;111593;1245;41753;-80
2022/07/19 00:33:08;;;;;;;7.00;2.30;;;;;13.10;98198.60;;;;111585;1247;41149;-80
2022/07/19 00:35:39;;;;;;;5.10;1.90;;;;;13.10;98196.80;;;;111306;1247;42055;-79
2022/07/19 00:38:11;;;;;;;5.20;1.90;;;;;13.10;98202.00;;;;111521;1247;42000;-81
2022/07/19 00:40:41;;;;;;;6.60;2.10;;;;;13.10;98201.20;;;;111600;1246;41248;-82
2022/07/19 00:43:12;;;;;;;5.80;2.30;;;;;13.00;98197.60;;;;111584;1246;41686;-80
2022/07/19 00:45:42;;;;;;;;;;;;;12.90;98200.60;;;;111580;1247;41538;-80
2022/07/19 00:48:13;;;;;;;6.80;2.30;;;;;12.72;98200.20;;;;111533;1246;41296;-79
2022/07/19 00:50:42;;;;;;;5.60;2.10;;;;;12.70;98201.60;;;;111528;1245;41696;-80
2022/07/19 00:53:14;;;;;;;;;;;;;12.66;98200.80;;;;111383;1247;41593;-79
2022/07/19 00:55:44;;;;;;;;;;;;;12.60;98200.80;;;;111346;1247;41180;-80
2022/07/19 00:58:16;;;;;;;6.00;2.20;;;;;12.60;98197.40;;;;111404;1245;41138;-79
2022/07/19 01:00:46;;;;;;;7.20;2.10;;;;;12.54;98198.60;;;;111255;1247;41142;-82
2022/07/19 01:03:16;;;;;;;6.30;2.10;;;;;12.54;98197.00;;;;111626;1246;41252;-80
2022/07/19 01:05:48;;;;;;;5.60;1.90;;;;;12.50;98191.40;;;;111552;1247;41173;-80
2022/07/19 01:08:18;;;;;;;5.50;1.90;;;;;12.52;98196.00;;;;111277;1247;41701;-80
2022/07/19 01:10:47;;;;;;;4.30;1.70;;;;;12.50;98195.60;;;;111504;1247;41605;-76
2022/07/19 01:13:21;;;;;;;4.60;1.80;;;;;12.50;98194.20;;;;111489;1247;41151;-78
2022/07/19 01:15:52;;;;;;;4.30;1.70;;;;;12.50;98188.00;;;;111329;1247;41515;-80
2022/07/19 01:18:23;;;;;;;8.50;2.00;;;;;12.50;98183.00;;;;111461;1247;41207;-80
2022/07/19 01:20:53;;;;;;;7.30;1.90;;;;;12.40;98186.40;;;;111301;1247;41145;-77
2022/07/19 01:23:22;;;;;;;5.70;1.80;;;;;12.40;98182.60;;;;111414;1246;42018;-80
2022/07/19 01:25:53;;;;;;;5.60;2.20;;;;;12.40;98187.40;;;;111282;1247;40726;-80
2022/07/19 01:28:22;;;;;;;5.10;2.20;;;;;12.40;98183.00;;;;111126;1247;41139;-78
2022/07/19 01:30:53;;;;;;;4.30;1.90;;;;;12.40;98177.60;;;;111625;1247;41632;-76
2022/07/19 01:33:24;;;;;;;4.50;2.10;;;;;12.40;98178.40;;;;111627;1247;41930;-79
2022/07/19 01:35:55;;;;;;;4.70;1.80;;;;;12.34;98173.20;;;;111608;1246;41278;-80
2022/07/19 01:38:25;;;;;;;3.70;1.70;;;;;12.30;98171.60;;;;111536;1246;41604;-78
2022/07/19 01:40:58;;;;;;;4.90;1.90;;;;;12.30;98170.80;;;;111620;1247;41251;-78
2022/07/19 01:43:27;;;;;;;6.30;1.80;;;;;12.20;98171.80;;;;111625;1247;41485;-75
2022/07/19 01:45:59;;;;;;;4.00;1.80;;;;;12.20;98167.20;;;;111620;1247;41151;-79
2022/07/19 01:48:28;;;;;;;3.70;1.90;;;;;12.10;98168.80;;;;111244;1247;41483;-79
2022/07/19 01:50:59;;;;;;;4.00;1.90;;;;;12.10;98177.80;;;;111260;1246;41640;-79
2022/07/19 01:53:30;;;;;;;6.50;2.30;;;;;12.10;98178.40;;;;111607;1247;41381;-78
2022/07/19 01:56:03;;;;;;;5.80;2.20;;;;;12.00;98179.40;;;;111560;1247;41155;-79
2022/07/19 01:58:34;;;;;;;4.40;1.90;;;;;11.90;98180.40;;;;111549;1247;41118;-77
2022/07/19 02:01:04;;;;;;;4.80;2.00;;;;;11.90;98182.40;;;;111273;1247;41162;-78
2022/07/19 02:03:36;;;;;;;6.50;2.40;;;;;11.90;98183.60;;;;111582;1246;41992;-78
2022/07/19 02:06:08;;;;;;;5.20;2.30;;;;;11.70;98188.60;;;;111228;1247;41611;-77
2022/07/19 02:08:40;;;;;;;7.10;2.40;;;;;11.60;98188.00;;;;111252;1247;41921;-80
2022/07/19 02:13:59;;;;;;;5.30;2.30;;;;;11.48;98190.00;;;;111542;1247;41133;-73
2022/07/19 02:16:29;;;;;;;6.50;2.30;;;;;11.44;98188.20;;;;111504;1246;41246;-77
2022/07/19 02:19:00;;;;;;;4.80;2.10;;;;;11.48;98183.60;;;;111627;1245;41593;-78
2022/07/19 02:21:34;;;;;;;5.10;2.10;;;;;11.50;98188.00;;;;111296;1244;41631;-78
2022/07/19 02:24:08;;;;;;;6.30;2.20;;;;;11.50;98190.20;;;;111574;1247;42237;-78
2022/07/19 02:26:40;;;;;;;5.60;2.00;;;;;11.50;98189.00;;;;111225;1247;42868;-79
2022/07/19 02:29:10;;;;;;;5.40;2.00;;;;;11.50;98190.60;;;;111479;1247;41167;-79
2022/07/19 02:31:40;;;;;;;6.00;1.90;;;;;11.46;98187.40;;;;111432;1247;41901;-78
2022/07/19 02:34:11;;;;;;;5.20;2.00;;;;;11.42;98185.20;;;;111581;1246;41263;-79
2022/07/19 02:36:40;;;;;;;4.60;2.10;;;;;11.40;98188.20;;;;111466;1246;41311;-78
2022/07/19 02:39:12;;;;;;;5.90;2.10;;;;;11.40;98188.80;;;;111267;1247;41196;-79
2022/07/19 02:41:42;;;;;;;6.90;2.60;;;;;11.40;98187.00;;;;111569;1245;41256;-79
2022/07/19 02:44:12;;;;;;;6.20;2.30;;;;;11.50;98183.00;;;;111551;1246;41121;-78
2022/07/19 02:46:44;;;;;;;6.10;2.20;;;;;11.50;98183.60;;;;111584;1246;42465;-78
2022/07/19 02:49:14;;;;;;;5.40;2.20;;;;;11.50;98192.00;;;;111233;1247;41140;-78
2022/07/19 02:51:43;;;;;;;6.20;2.50;;;;;11.50;98189.20;;;;111554;1246;41141;-79
2022/07/19 02:54:15;;;;;;;6.70;2.50;;;;;11.40;98193.20;;;;111221;1247;41951;-79
2022/07/19 02:56:45;;;;;;;7.10;2.40;;;;;11.30;98190.40;;;;111304;1247;41369;-79
2022/07/19 02:59:15;;;;;;;6.80;2.10;;;;;11.30;98187.40;;;;111587;1246;41244;-78
2022/07/19 03:01:45;;;;;;;8.10;2.90;;;;;11.30;98192.80;;;;111542;1247;41145;-79
2022/07/19 03:04:17;;;;;;;7.10;2.30;;;;;11.30;98190.60;;;;111596;1245;41159;-80
2022/07/19 03:06:48;;;;;;;6.50;2.00;;;;;11.26;98191.60;;;;111251;1247;41278;-77
2022/07/19 03:09:19;;;;;;;3.90;2.00;;;;;11.26;98190.00;;;;111239;1247;42274;-77
2022/07/19 03:11:49;;;;;;;5.00;2.10;;;;;11.28;98191.40;;;;111484;1244;41590;-78
2022/07/19 03:14:18;;;;;;;5.20;2.10;;;;;11.30;98186.60;;;;111530;1246;41034;-78
2022/07/19 03:16:48;;;;;;;6.40;2.10;;;;;11.20;98190.00;;;;111482;1247;41248;-76
2022/07/19 03:19:19;;;;;;;5.10;2.10;;;;;11.20;98193.20;;;;111599;1244;41873;-72
2022/07/19 03:21:49;;;;;;;;;;;;;11.20;98196.40;;;;111183;1249;41266;-72
2022/07/19 03:24:19;;;;;;;6.00;2.10;;;;;11.20;98198.00;;;;111154;1248;41151;-77
2022/07/19 03:26:49;;;;;;;4.60;1.90;;;;;11.30;98201.80;;;;111358;1247;41609;-76
2022/07/19 03:29:18;;;;;;;6.60;2.60;;;;;11.30;98203.60;;;;111443;1247;41132;-75
2022/07/19 03:31:52;;;;;;;5.40;2.30;;;;;11.30;98201.80;;;;111234;1247;41198;-75
2022/07/19 03:34:21;;;;;;;8.70;2.60;;;;;11.30;98197.20;;;;111210;1247;41254;-77
2022/07/19 03:36:52;;;;;;;7.20;2.20;;;;;11.30;98200.40;;;;111548;1247;41247;-75
2022/07/19 03:39:21;;;;;;;5.00;2.10;;;;;11.30;98201.00;;;;111408;1247;41498;-75
2022/07/19 03:41:51;;;;;;;7.10;2.60;;;;;11.34;98201.40;;;;111224;1247;41260;-75
2022/07/19 03:44:27;;;;;;;5.20;2.20;;;;;11.40;98199.80;;;;111565;1247;41340;-77
2022/07/19 03:46:57;;;;;;;7.10;2.30;;;;;11.40;98198.20;;;;111243;1247;41339;-77
2022/07/19 03:49:26;;;;;;;5.30;2.00;;;;;11.50;98205.80;;;;111159;1249;41130;-77
2022/07/19 03:51:55;;;;;;;3.80;1.80;;;;;11.50;98202.20;;;;111291;1248;41163;-75
2022/07/19 03:54:25;;;;;;;4.30;1.80;;;;;11.60;98207.80;;;;111087;1248;41126;-74
2022/07/19 03:56:55;;;;;;;4.30;1.90;;;;;11.68;98203.60;;;;111182;1248;41165;-75
2022/07/19 03:59:24;;;;;;;4.90;1.80;;;;;11.70;98204.00;;;;111129;1247;41147;-77
2022/07/19 04:01:54;;;;;;;5.30;2.00;;;;;11.80;98207.80;;;;111256;1247;41134;-75
2022/07/19 04:04:23;;;;;;;4.90;2.00;;;;;11.90;98213.40;;;;111110;1247;41135;-76
2022/07/19 04:06:53;;;;;;;6.00;2.20;;;;;12.00;98210.60;;;;111323;1247;41133;-71
2022/07/19 04:09:23;;;;;;;5.70;2.20;;;;;12.10;98204.80;;;;111161;1248;41368;-74
2022/07/19 04:11:53;;;;;;;5.60;2.20;;;;;12.20;98205.80;;;;111308;1247;42168;-73
2022/07/19 04:14:22;;;;;;;5.10;2.20;;;;;12.32;98214.20;;;;111187;1247;41257;-75
2022/07/19 04:16:52;;;;;;;6.10;2.10;;;;;12.42;98215.20;;;;111195;1247;40819;-71
2022/07/19 04:19:21;;;;;;;5.50;2.30;;;;;12.60;98210.80;;;;111307;1247;41146;-76
2022/07/19 04:21:50;;;;;;;5.80;2.20;;;;;12.84;98209.20;;;;111305;1247;42088;-76
2022/07/19 04:24:20;;;;;;;7.10;2.50;;;;;13.32;98208.60;;;;111220;1247;41132;-74
2022/07/19 04:26:50;;;;;;;6.30;2.30;;;;;13.90;98204.40;;;;111457;1246;41584;-75
2022/07/19 04:29:19;;;;;;;5.90;2.10;;;;;14.50;98201.40;;;;111181;1247;41268;-75
2022/07/19 04:31:48;;;;;;;5.90;2.30;;;;;15.10;98200.60;;;;111184;1247;42432;-73
2022/07/19 04:34:18;;;;;;;7.70;2.40;;;;;15.70;98192.20;;;;111136;1247;41150;-75
2022/07/19 04:36:47;;;;;;;6.90;2.80;;;;;16.12;98192.20;;;;111245;1246;41144;-75
2022/07/19 04:39:16;;;;;;;5.90;2.40;;;;;16.54;98186.00;;;;111168;1247;41261;-75
2022/07/19 04:41:45;;;;;;;5.10;2.10;;;;;17.00;98179.80;;;;111272;1245;41180;-76
2022/07/19 04:44:14;;;;;;;9.80;2.50;;;;;17.46;98181.00;;;;111318;1247;41723;-72
2022/07/19 04:46:43;;;;;;;9.40;2.70;;;;;17.90;98186.00;;;;111382;1246;41154;-77
2022/07/19 04:49:15;;;;;;;10.80;2.80;;;;;18.48;98178.20;;;;111392;1247;41168;-74
2022/07/19 04:51:44;;;;;;;7.60;2.80;;;;;18.80;98173.00;;;;111377;1245;41144;-76
2022/07/19 04:54:13;;;;;;;6.20;2.50;;;;;19.20;98168.80;;;;111150;1248;41133;-76
2022/07/19 04:56:44;;;;;;;5.20;2.10;;;;;19.70;98156.00;;;;111341;1247;41136;-77
2022/07/19 04:59:13;;;;;;;8.30;2.60;;;;;20.30;98157.40;;;;111254;1247;41208;-75
2022/07/19 05:01:43;;;;;;;10.60;2.60;;;;;20.62;98150.40;;;;111270;1247;41638;-74
2022/07/19 05:04:20;;;;;;;5.50;2.30;;;;;21.00;98147.20;;;;111130;1247;42413;-75
2022/07/19 05:06:51;;;;;;;6.00;2.10;;;;;21.50;98146.00;;;;111319;1246;41142;-75
2022/07/19 05:09:20;;;;;;;6.10;2.00;;;;;21.88;98144.60;;;;111391;1247;40756;-76
2022/07/19 05:11:50;;;;;;;6.10;1.90;;;;;22.30;98144.60;;;;111291;1247;41534;-76
2022/07/19 05:14:19;;;;;;;5.90;2.00;;;;;22.80;98144.80;;;;111299;1247;41142;-74
2022/07/19 05:16:49;;;;;;;6.50;2.10;;;;;23.14;98146.20;;;;111199;1247;41436;-74
2022/07/19 05:19:18;;;;;;;5.00;1.80;;;;;23.30;98144.40;;;;111147;1248;41156;-75
2022/07/19 05:21:48;;;;;;;5.40;2.10;;;;;23.70;98148.00;;;;111097;1249;41267;-78
2022/07/19 05:24:18;;;;;;;4.20;1.80;;;;;24.10;98145.80;;;;111473;1245;41255;-75
2022/07/19 05:26:48;;;;;;;4.40;1.80;;;;;24.32;98147.80;;;;111279;1247;42381;-78
2022/07/19 05:29:18;;;;;;;6.10;2.00;;;;;24.52;98144.40;;;;111288;1248;41611;-78
2022/07/19 05:31:47;;;;;;;4.90;1.80;;;;;24.80;98143.20;;;;111262;1248;41134;-78
2022/07/19 05:34:16;;;;;;;9.00;3.10;;;;;25.14;98145.40;;;;111288;1247;41263;-77
2022/07/19 05:36:45;;;;;;;12.70;5.40;;;;;25.42;98154.00;;;;111047;1249;41143;-74
2022/07/19 05:39:14;;;;;;;10.40;3.10;;;;;25.40;98157.00;;;;111416;1245;41147;-76
2022/07/19 05:41:44;;;;;;;6.60;2.00;;;;;24.86;98180.00;;;;111435;1245;41166;-78
2022/07/19 05:44:13;;;;;;;6.70;1.80;;;;;24.24;98182.00;;;;111330;1247;41207;-78
2022/07/19 05:46:42;;;;;;;6.20;1.90;;;;;23.44;98190.40;;;;111357;1248;42092;-76
2022/07/19 05:49:11;;;;;;;4.00;1.70;;;;;22.74;98192.20;;;;111475;1246;41152;-79
2022/07/19 05:51:41;;;;;;;10.30;2.20;;;;;22.50;98189.20;;;;111543;1247;42463;-79
2022/07/19 05:54:10;;;;;;;6.40;2.10;;;;;22.66;98180.80;;;;111283;1247;41478;-79
2022/07/19 05:56:39;;;;;;;5.60;1.80;;;;;22.80;98176.20;;;;111369;1247;41148;-78
2022/07/19 05:59:08;;;;;;;5.20;1.90;;;;;23.08;98176.60;;;;111362;1245;41233;-80
2022/07/19 06:01:37;;;;;;;7.20;1.90;;;;;23.60;98181.20;;;;111228;1247;41217;-79
2022/07/19 06:04:07;;;;;;;8.10;2.10;;;;;24.10;98178.00;;;;111377;1247;41182;-78
2022/07/19 06:06:36;;;;;;;7.60;1.80;;;;;24.16;98177.60;;;;111121;1247;41140;-77
2022/07/19 06:09:05;;;;;;;3.60;1.50;;;;;24.60;98180.20;;;;111211;1247;41142;-78
2022/07/19 06:11:34;;;;;;;3.90;1.40;;;;;25.18;98171.20;;;;111070;1249;41158;-78
2022/07/19 06:14:05;;;;;;;5.40;1.70;;;;;25.98;98172.60;;;;111230;1247;42112;-78
2022/07/19 06:16:35;;;;;;;3.60;1.50;;;;;26.30;98170.40;;;;111463;1247;41482;-78
2022/07/19 06:19:05;;;;;;;2.80;1.50;;;;;26.90;98166.20;;;;111423;1246;41257;-74
2022/07/19 06:21:34;;;;;;;3.20;1.60;;;;;27.56;98166.00;;;;111270;1247;41141;-73
2022/07/19 06:24:04;;;;;;;5.40;1.60;;;;;28.10;98164.20;;;;111334;1247;41158;-79
2022/07/19 06:26:33;;;;;;;4.20;1.40;;;;;28.40;98169.60;;;;111312;1247;41124;-79
2022/07/19 06:29:03;;;;;;;2.80;1.40;;;;;29.08;98167.00;;;;111332;1247;41262;-78
2022/07/19 06:31:32;;;;;;;3.90;1.60;;;;;29.80;98163.60;;;;111179;1247;41352;-78
2022/07/19 06:34:01;;;;;;;3.10;1.40;;;;;30.40;98164.00;;;;111311;1247;41161;-77
2022/07/19 06:36:33;;;;;;;2.40;1.50;;;;;30.90;98164.00;;;;111412;1247;41136;-77
2022/07/19 06:39:02;;;;;;;3.40;1.50;;;;;31.46;98162.80;;;;111270;1246;41165;-76
2022/07/19 06:41:31;;;;;;;2.90;1.40;;;;;31.90;98164.20;;;;111373;1247;41597;-76
2022/07/19 06:44:00;;;;;;;7.20;1.80;;;;;32.30;98161.60;;;;111248;1247;41144;-77
2022/07/19 06:46:29;;;;;;;4.20;1.30;;;;;31.92;98160.20;;;;111276;1246;41340;-77
2022/07/19 06:48:58;;;;;;;3.60;1.40;;;;;31.40;98158.80;;;;111301;1247;42113;-77
2022/07/19 06:51:27;;;;;;;4.60;1.30;;;;;32.00;98162.00;;;;110929;1247;41170;-76
2022/07/19 06:53:56;;;;;;;3.80;1.40;;;;;32.72;98158.20;;;;111212;1247;41454;-75
2022/07/19 06:56:25;;;;;;;2.40;1.30;;;;;33.22;98156.80;;;;111201;1247;41152;-76
2022/07/19 06:58:54;;;;;;;2.70;1.40;;;;;33.68;98155.60;;;;111175;1248;42407;-77
2022/07/19 07:01:24;;;;;;;5.50;1.50;;;;;34.02;98153.20;;;;111438;1246;41192;-77
2022/07/19 07:03:53;;;;;;;4.00;1.40;;;;;34.50;98153.40;;;;111281;1247;41601;-78
2022/07/19 07:06:23;;;;;;;2.50;1.40;;;;;34.32;98146.80;;;;111216;1248;41616;-78
2022/07/19 07:08:51;;;;;;;3.00;1.40;;;;;34.04;98147.80;;;;111342;1246;41362;-77
2022/07/19 07:11:20;;;;;;;2.50;1.30;;;;;32.76;98148.80;;;;111224;1247;41609;-73
2022/07/19 07:13:49;;;;;;;2.50;1.40;;;;;32.84;98149.60;;;;111303;1247;41650;-79
2022/07/19 07:16:18;;;;;;;7.10;1.50;;;;;32.38;98147.40;;;;111295;1247;41138;-75
2022/07/19 07:18:48;;;;;;;3.00;1.40;;;;;31.78;98150.80;;;;111354;1247;41370;-74
2022/07/19 07:21:18;;;;;;;4.10;1.50;;;;;30.84;98165.20;;;;111153;1247;41138;-79
2022/07/19 07:23:47;;;;;;;4.60;1.50;;;;;29.92;98167.00;;;;111290;1247;41851;-75
2022/07/19 07:26:16;;;;;;;2.00;1.10;;;;;29.36;98174.20;;;;111150;1247;41148;-75
2022/07/19 07:28:45;;;;;;;2.30;1.30;;;;;29.00;98176.00;;;;111310;1245;41144;-74
2022/07/19 07:31:14;;;;;;;5.30;1.60;;;;;28.36;98176.60;;;;111171;1247;41139;-75
2022/07/19 07:33:43;;;;;;;4.20;1.30;;;;;28.02;98173.80;;;;111169;1247;42161;-75
2022/07/19 07:36:13;;;;;;;5.80;1.70;;;;;27.90;98176.00;;;;111228;1247;42371;-78
2022/07/19 07:38:42;;;;;;;3.70;1.50;;;;;27.80;98174.60;;;;111177;1247;41239;-76
2022/07/19 07:41:12;;;;;;;6.20;2.10;;;;;27.28;98182.80;;;;111255;1247;41323;-76
2022/07/19 07:44:01;;;;;;;2.50;1.40;;;;;26.88;98179.80;;;;110589;1246;774461;-77
2022/07/19 07:46:30;;;;;;;3.70;1.50;;;;;26.36;98184.60;;;;111315;1245;41132;-76
2022/07/19 07:48:59;;;;;;;2.70;1.40;;;;;26.20;98183.40;;;;111135;1247;41156;-77
2022/07/19 07:51:35;;;;;;;4.10;1.50;;;;;26.12;98180.80;;;;111201;1246;41135;-77
2022/07/19 07:54:13;;;;;;;4.90;1.40;;;;;26.42;98186.40;;;;111184;1246;41124;-78
2022/07/19 07:56:43;;;;;;;3.70;1.50;;;;;26.70;98188.00;;;;111143;1248;41261;-77
2022/07/19 07:59:13;;;;;;;7.10;1.70;;;;;26.60;98187.80;;;;111492;1247;41144;-78
2022/07/19 08:01:44;;;;;;;4.20;1.60;;;;;26.50;98183.20;;;;111379;1247;41259;-78
2022/07/19 08:04:13;;;;;;;4.50;1.70;;;;;26.40;98183.00;;;;111165;1247;41859;-77
2022/07/19 08:06:42;;;;;;;4.20;1.80;;;;;26.50;98179.00;;;;111433;1246;41236;-78
2022/07/19 08:09:11;;;;;;;6.50;1.80;;;;;26.28;98185.80;;;;111351;1245;41141;-79
2022/07/19 08:11:40;;;;;;;6.00;1.70;;;;;26.30;98187.20;;;;111346;1247;41138;-79
2022/07/19 08:14:09;;;;;;;5.80;1.70;;;;;26.24;98180.40;;;;111225;1247;41614;-77
2022/07/19 08:16:38;;;;;;;4.60;1.70;;;;;26.40;98176.20;;;;111303;1246;41155;-77
2022/07/19 08:19:07;;;;;;;4.40;1.80;;;;;26.70;98179.40;;;;111202;1248;42288;-77
2022/07/19 08:21:36;;;;;;;4.80;1.80;;;;;26.98;98176.40;;;;111189;1247;42047;-76
2022/07/19 08:24:06;;;;;;;2.80;1.50;;;;;27.20;98174.60;;;;111232;1248;41809;-77
2022/07/19 08:26:40;;;;;;;8.00;1.80;;;;;27.30;98173.20;;;;111190;1247;41124;-76
2022/07/19 08:29:10;;;;;;;4.80;1.70;;;;;27.54;98173.00;;;;111297;1246;41128;-75
2022/07/19 08:31:39;;;;;;;5.00;1.60;;;;;27.80;98164.80;;;;111035;1250;41807;-76
2022/07/19 08:34:08;;;;;;;5.10;1.80;;;;;28.00;98163.60;;;;111187;1248;41604;-77
2022/07/19 08:36:37;;;;;;;4.80;1.70;;;;;28.10;98157.20;;;;111141;1247;41902;-77
2022/07/19 08:39:06;;;;;;;9.10;2.10;;;;;28.40;98155.00;;;;111176;1247;41702;-76
2022/07/19 08:41:35;;;;;;;5.60;2.00;;;;;28.20;98150.60;;;;111213;1247;41823;-76
2022/07/19 08:44:05;;;;;;;8.90;1.90;;;;;27.82;98144.20;;;;111206;1247;42181;-77
2022/07/19 08:46:34;;;;;;;3.70;1.70;;;;;27.60;98144.00;;;;111115;1247;41556;-74
2022/07/19 08:49:03;;;;;;;3.70;1.50;;;;;27.78;98142.80;;;;111245;1246;41238;-77
2022/07/19 08:51:32;;;;;;;3.30;1.30;;;;;28.10;98141.80;;;;111216;1247;42314;-76
2022/07/19 08:54:01;;;;;;;4.20;1.40;;;;;28.52;98145.40;;;;111150;1248;41170;-71
2022/07/19 08:59:18;;;;;;;2.90;1.30;;;;;28.98;98135.00;;;;111430;1245;41354;-77
2022/07/19 09:01:47;;;;;;;5.90;1.40;;;;;29.20;98132.60;;;;111111;1248;41278;-76
2022/07/19 09:04:19;;;;;;;6.00;1.30;;;;;29.58;98130.80;;;;111242;1247;41178;-76
2022/07/19 09:06:51;;;;;;;2.40;1.40;;;;;30.06;98127.60;;;;111110;1247;41161;-80
2022/07/19 09:09:26;;;;;;;4.30;1.60;;;;;30.42;98122.40;;;;111359;1246;41832;-79
2022/07/19 09:11:57;;;;;;;5.80;1.50;;;;;30.76;98116.80;;;;111236;1247;41490;-73
2022/07/19 09:14:33;;;;;;;3.00;1.40;;;;;31.10;98116.00;;;;111363;1245;41132;-78
2022/07/19 09:17:12;;;;;;;2.70;1.40;;;;;31.66;98110.40;;;;111308;1246;41146;-72
2022/07/19 09:19:43;;;;;;;2.70;1.30;;;;;32.38;98104.20;;;;110988;1249;40991;-74
2022/07/19 09:22:15;;;;;;;3.50;1.50;;;;;33.30;98103.20;;;;111268;1247;41177;-77
2022/07/19 09:24:49;;;;;;;2.90;1.40;;;;;34.16;98098.00;;;;111234;1247;41142;-75
2022/07/19 09:27:20;;;;;;;3.90;1.50;;;;;33.90;98099.00;;;;111427;1246;41311;-76
2022/07/19 09:29:54;;;;;;;2.20;1.20;;;;;33.40;98085.60;;;;111121;1247;41263;-75
2022/07/19 09:32:25;;;;;;;3.10;1.20;;;;;33.66;98091.20;;;;111456;1246;41160;-75
2022/07/19 09:35:01;;;;;;;2.40;1.20;;;;;33.90;98092.00;;;;111221;1247;41705;-75
2022/07/19 09:37:32;;;;;;;3.70;1.30;;;;;34.50;98092.00;;;;111179;1248;41154;-74
2022/07/19 09:40:07;;;;;;;2.70;1.20;;;;;35.10;98094.00;;;;111452;1246;41246;-76
2022/07/19 09:42:37;;;;;;;2.80;1.30;;;;;35.82;98094.00;;;;111032;1249;41596;-76
2022/07/19 09:45:11;;;;;;;2.70;1.30;;;;;36.38;98084.80;;;;111229;1247;41243;-77
2022/07/19 09:47:42;;;;;;;4.20;1.40;;;;;36.72;98083.20;;;;111209;1247;41141;-76
2022/07/19 09:50:17;;;;;;;3.90;1.20;;;;;37.10;98078.20;;;;111199;1248;42333;-73
2022/07/19 09:52:47;;;;;;;3.80;1.40;;;;;37.02;98073.00;;;;111159;1247;41164;-77
2022/07/19 09:55:19;;;;;;;3.10;1.30;;;;;37.28;98077.40;;;;111168;1247;41137;-76
2022/07/19 09:57:49;;;;;;;3.40;1.30;;;;;37.54;98072.80;;;;111039;1247;41152;-75
2022/07/19 10:00:21;;;;;;;3.60;1.20;;;;;37.12;98073.20;;;;110952;1249;41499;-75
2022/07/19 10:02:53;;;;;;;1.70;1.10;;;;;37.48;98068.80;;;;111220;1247;41583;-73
2022/07/19 10:05:24;;;;;;;5.50;1.60;;;;;37.60;98070.40;;;;111119;1247;41103;-75
2022/07/19 10:07:53;;;;;;;4.60;1.40;;;;;37.60;98065.40;;;;111240;1246;41260;-77
2022/07/19 10:10:23;;;;;;;1.90;1.20;;;;;37.50;98065.40;;;;111138;1248;41511;-76
2022/07/19 10:12:54;;;;;;;3.10;1.10;;;;;37.40;98067.00;;;;111241;1247;41255;-70
2022/07/19 10:15:26;;;;;;;2.50;1.20;;;;;37.62;98061.80;;;;111170;1248;41449;-70
2022/07/19 10:18:20;;;;;;;3.40;1.20;;;;;36.96;98060.80;;;;111219;1246;41177;-76
2022/07/19 10:20:49;;;;;;;4.20;1.60;;;;;37.18;98058.60;;;;111253;1247;41139;-78
2022/07/19 10:23:29;;;;;;;2.50;1.20;;;;;36.50;98053.60;;;;111301;1247;41151;-77
2022/07/19 10:25:57;;;;;;;3.70;1.30;;;;;37.16;98057.60;;;;111267;1247;41622;-74
2022/07/19 10:28:35;;;;;;;3.30;1.50;;;;;37.16;98052.00;;;;111516;1246;41318;-77
2022/07/19 10:31:30;;;;;;;4.80;1.40;;;;;36.98;98055.80;;;;111392;1245;41985;-78
2022/07/19 10:34:06;;;;;;;4.30;1.50;;;;;36.24;98053.80;;;;111229;1247;41261;-79
2022/07/19 10:36:44;;;;;;;4.20;1.70;;;;;36.30;98049.40;;;;111331;1245;41593;-78
2022/07/19 10:39:22;;;;;;;3.90;1.50;;;;;36.30;98047.80;;;;111310;1246;41692;-77
2022/07/19 10:42:09;;;;;;;3.00;1.40;;;;;36.00;98049.20;;;;111224;1246;41151;-78
2022/07/19 10:45:02;;;;;;;2.70;1.30;;;;;35.90;98056.40;;;;111323;1246;41253;-79
2022/07/19 10:47:39;;;;;;;3.40;1.30;;;;;35.90;98054.20;;;;111246;1246;41263;-78
2022/07/19 10:50:16;;;;;;;2.90;1.20;;;;;35.80;98050.40;;;;111253;1247;41136;-78
2022/07/19 10:52:46;;;;;;;3.50;1.40;;;;;35.50;98051.20;;;;111505;1246;41960;-79
2022/07/19 10:55:22;;;;;;;;;;;;;35.50;98041.20;;;;111240;1247;41262;-79
2022/07/19 10:57:53;;;;;;;3.00;1.20;;;;;35.50;98043.00;;;;111262;1247;41307;-79
2022/07/19 11:00:26;;;;;;;2.60;1.30;;;;;35.56;98038.60;;;;111249;1244;41149;-80
2022/07/19 11:03:22;;;;;;;2.50;1.20;;;;;36.02;98035.00;;;;111147;1247;41190;-78
2022/07/19 11:05:57;;;;;;;3.70;1.40;;;;;36.24;98036.60;;;;111394;1245;41747;-78
2022/07/19 11:08:37;;;;;;;3.10;1.10;;;;;35.96;98030.60;;;;111192;1248;41138;-80
2022/07/19 11:11:10;;;;;;;2.80;1.40;;;;;35.74;98022.40;;;;111199;1247;41730;-80
2022/07/19 11:13:43;;;;;;;3.80;1.10;;;;;35.82;98023.00;;;;111222;1248;41247;-79
2022/07/19 11:16:13;;;;;;;5.60;1.50;;;;;36.92;98023.20;;;;111333;1247;41912;-77
2022/07/19 11:18:43;;;;;;;3.10;1.30;;;;;37.76;98014.80;;;;111451;1245;41148;-77
2022/07/19 11:21:14;;;;;;;3.60;1.50;;;;;37.58;98010.00;;;;111221;1247;41174;-78
2022/07/19 11:23:44;;;;;;;3.60;1.40;;;;;37.66;98008.40;;;;111158;1247;41238;-76
2022/07/19 11:26:20;;;;;;;4.60;1.30;;;;;38.20;97999.60;;;;111175;1246;42404;-79
2022/07/19 11:28:50;;;;;;;3.70;1.40;;;;;39.10;97994.60;;;;111417;1247;41707;-77
2022/07/19 11:31:24;;;;;;;4.00;1.60;;;;;39.24;97993.00;;;;111302;1246;42091;-77
2022/07/19 11:33:57;;;;;;;3.30;1.20;;;;;39.06;97994.80;;;;111383;1246;41353;-78
2022/07/19 11:36:27;;;;;;;2.90;1.30;;;;;39.44;97997.00;;;;111224;1247;41128;-77
2022/07/19 11:38:58;;;;;;;3.60;1.40;;;;;40.26;97999.80;;;;111199;1247;41243;-79
2022/07/19 11:41:30;;;;;;;3.40;1.40;;;;;40.66;98000.40;;;;111302;1244;41359;-76
2022/07/19 11:44:02;;;;;;;1.70;1.10;;;;;41.08;97994.00;;;;111187;1248;41237;-79
2022/07/19 11:46:37;;;;;;;2.70;1.30;;;;;41.06;97990.40;;;;111214;1247;41611;-78
2022/07/19 11:49:08;;;;;;;4.00;1.20;;;;;41.22;97990.80;;;;111150;1247;41651;-78
2022/07/19 11:51:37;;;;;;;2.50;1.20;;;;;41.50;97995.80;;;;111166;1247;41154;-78
2022/07/19 11:54:07;;;;;;;1.80;0.80;;;;;41.40;97997.80;;;;111324;1247;41164;-79
2022/07/19 11:56:36;;;;;;;3.60;1.00;;;;;41.20;97996.40;;;;111328;1247;41986;-76
2022/07/19 11:59:10;;;;;;;2.90;1.40;;;;;41.76;97990.40;;;;111190;1247;41852;-74
2022/07/19 12:01:40;;;;;;;2.80;1.30;;;;;42.28;97988.20;;;;111311;1247;41147;-78
2022/07/19 12:04:11;;;;;;;2.20;1.10;;;;;42.80;97977.60;;;;111180;1247;41154;-77
2022/07/19 12:06:42;;;;;;;1.50;1.10;;;;;42.86;97972.20;;;;111164;1249;41778;-75
2022/07/19 12:09:12;;;;;;;2.10;1.10;;;;;42.70;97970.00;;;;111100;1248;41266;-74
2022/07/19 12:11:42;;;;;;;2.50;1.00;;;;;42.70;97969.20;;;;111034;1248;41143;-75
2022/07/19 12:14:19;;;;;;;1.90;1.10;;;;;42.86;97967.00;;;;111193;1247;41622;-78
2022/07/19 12:16:50;;;;;;;2.80;1.30;;;;;43.38;97967.20;;;;111189;1247;41502;-77
2022/07/19 12:19:20;;;;;;;3.80;1.20;;;;;43.52;97961.40;;;;111187;1247;42873;-77
2022/07/19 12:21:49;;;;;;;3.50;1.30;;;;;41.98;97970.40;;;;111247;1247;41946;-77
2022/07/19 12:24:23;;;;;;;1.50;1.00;;;;;41.46;97968.60;;;;111194;1247;41475;-76
2022/07/19 12:26:56;;;;;;;2.90;0.90;;;;;40.52;97967.00;;;;111265;1247;41292;-76
2022/07/19 12:29:31;;;;;;;4.00;1.10;;;;;39.48;97965.60;;;;111326;1246;41240;-73
2022/07/19 12:32:03;;;;;;;3.70;1.20;;;;;38.62;97965.20;;;;111178;1247;41204;-78